createdAt,value
2023-04-29T00:01:13.772Z,13.82
2023-04-29T00:03:41.549Z,13.77
2023-04-29T00:06:11.628Z,13.77
2023-04-29T00:08:39.435Z,13.78
2023-04-29T00:11:07.146Z,13.73
2023-04-29T00:13:34.784Z,13.68
2023-04-29T00:16:02.985Z,13.50
2023-04-29T00:18:30.654Z,13.46
2023-04-29T00:20:58.301Z,13.25
2023-04-29T00:23:27.532Z,13.16
2023-04-29T00:25:55.204Z,13.13
2023-04-29T00:28:22.858Z,13.05
2023-04-29T00:30:50.575Z,13.03
2023-04-29T00:33:18.251Z,13.00
2023-04-29T00:35:45.986Z,12.93
2023-04-29T00:38:13.618Z,12.87
2023-04-29T00:40:43.598Z,12.89
2023-04-29T00:43:11.541Z,12.85
2023-04-29T00:45:39.208Z,12.84
2023-04-29T00:48:07.699Z,12.81
2023-04-29T00:50:36.975Z,12.84
2023-04-29T00:53:04.784Z,12.86
2023-04-29T00:55:33.907Z,12.83
2023-04-29T00:58:04.254Z,12.73
2023-04-29T01:00:33.561Z,12.72
2023-04-29T01:03:01.309Z,12.74
2023-04-29T01:05:29.091Z,12.81
2023-04-29T01:08:07.832Z,12.91
2023-04-29T01:10:42.737Z,12.96
2023-04-29T01:13:19.141Z,13.04
2023-04-29T01:15:55.542Z,13.03
2023-04-29T01:18:30.498Z,12.96
2023-04-29T01:20:59.644Z,12.94
2023-04-29T01:23:29.027Z,12.83
2023-04-29T01:25:57.370Z,12.93
2023-04-29T01:28:39.970Z,12.89
2023-04-29T01:31:13.171Z,12.88
2023-04-29T01:33:45.548Z,12.96
2023-04-29T01:36:22.405Z,13.02
2023-04-29T01:38:58.987Z,13.15
2023-04-29T01:41:36.040Z,13.19
2023-04-29T01:44:05.585Z,13.26
2023-04-29T01:46:34.812Z,13.28
2023-04-29T01:49:03.157Z,13.21
2023-04-29T01:51:31.418Z,13.23
2023-04-29T01:54:00.325Z,13.28
2023-04-29T01:56:27.934Z,13.31
2023-04-29T01:58:55.484Z,13.27
2023-04-29T02:01:23.118Z,13.43
2023-04-29T02:03:51.310Z,13.42
2023-04-29T02:06:19.211Z,13.52
2023-04-29T02:08:46.806Z,13.55
2023-04-29T02:11:16.272Z,13.52
2023-04-29T02:13:44.111Z,13.64
2023-04-29T02:16:15.053Z,13.62
2023-04-29T02:18:42.948Z,13.60
2023-04-29T02:21:10.514Z,13.64
2023-04-29T02:23:38.188Z,13.63
2023-04-29T02:26:06.943Z,13.54
2023-04-29T02:28:35.919Z,13.62
2023-04-29T02:31:03.542Z,13.56
2023-04-29T02:33:31.162Z,13.55
2023-04-29T02:35:59.609Z,13.51
2023-04-29T02:38:27.293Z,13.68
2023-04-29T02:40:54.892Z,13.69
2023-04-29T02:43:22.636Z,13.65
2023-04-29T02:45:51.691Z,13.54
2023-04-29T02:48:20.979Z,13.57
2023-04-29T02:50:49.207Z,13.49
2023-04-29T02:53:17.178Z,13.55
2023-04-29T02:55:44.962Z,13.61
2023-04-29T02:58:12.569Z,13.55
2023-04-29T03:00:42.117Z,13.58
2023-04-29T03:03:11.737Z,13.69
2023-04-29T03:05:39.438Z,13.79
2023-04-29T03:08:07.497Z,13.74
2023-04-29T03:10:35.107Z,13.73
2023-04-29T03:13:02.842Z,13.72
2023-04-29T03:15:30.875Z,13.72
2023-04-29T03:18:01.568Z,13.66
2023-04-29T03:20:30.762Z,13.59
2023-04-29T03:22:58.373Z,13.46
2023-04-29T03:25:25.959Z,13.48
2023-04-29T03:27:53.765Z,13.47
2023-04-29T03:30:21.350Z,13.42
2023-04-29T03:32:49.334Z,13.45
2023-04-29T03:35:17.091Z,13.48
2023-04-29T03:37:46.037Z,13.45
2023-04-29T03:40:17.897Z,13.46
2023-04-29T03:42:45.475Z,13.38
2023-04-29T03:45:14.318Z,13.37
2023-04-29T03:47:41.945Z,13.31
2023-04-29T03:50:15.202Z,13.24
2023-04-29T03:52:42.798Z,13.20
2023-04-29T03:55:12.601Z,13.16
2023-04-29T03:57:42.641Z,13.19
2023-04-29T04:00:11.370Z,13.09
2023-04-29T04:02:39.332Z,13.17
2023-04-29T04:05:07.236Z,13.11
2023-04-29T04:07:35.178Z,13.19
2023-04-29T04:10:02.771Z,13.11
2023-04-29T04:12:31.852Z,13.08
2023-04-29T04:14:59.489Z,12.99
2023-04-29T04:17:27.026Z,13.01
2023-04-29T04:19:55.010Z,13.01
2023-04-29T04:22:22.699Z,13.04
2023-04-29T04:24:50.266Z,13.19
2023-04-29T04:27:17.876Z,13.28
2023-04-29T04:29:46.831Z,13.27
2023-04-29T04:32:14.358Z,13.47
2023-04-29T04:34:42.136Z,13.39
2023-04-29T04:37:09.800Z,13.28
2023-04-29T04:39:37.582Z,13.29
2023-04-29T04:42:05.284Z,13.27
2023-04-29T04:44:32.979Z,13.23
2023-04-29T04:47:02.250Z,13.17
2023-04-29T04:49:29.976Z,13.23
2023-04-29T04:51:57.566Z,13.23
2023-04-29T04:54:25.258Z,13.26
2023-04-29T04:56:53.070Z,13.31
2023-04-29T04:59:20.945Z,13.41
2023-04-29T05:01:48.673Z,13.55
2023-04-29T05:04:18.751Z,14.29
2023-04-29T05:06:46.765Z,14.86
2023-04-29T05:09:14.710Z,15.60
2023-04-29T05:11:42.273Z,16.40
2023-04-29T05:14:10.052Z,17.68
2023-04-29T05:16:38.094Z,18.76
2023-04-29T05:19:05.802Z,18.67
2023-04-29T05:21:34.819Z,18.76
2023-04-29T05:24:02.491Z,18.70
2023-04-29T05:26:30.050Z,18.38
2023-04-29T05:28:57.733Z,17.17
2023-04-29T05:31:26.167Z,16.34
2023-04-29T05:33:54.227Z,17.30
2023-04-29T05:36:22.466Z,18.54
2023-04-29T05:38:51.360Z,19.67
2023-04-29T05:41:18.979Z,19.67
2023-04-29T05:43:46.928Z,18.99
2023-04-29T05:46:14.620Z,17.96
2023-04-29T05:48:42.484Z,17.42
2023-04-29T05:51:10.432Z,16.50
2023-04-29T05:53:38.490Z,16.29
2023-04-29T05:56:08.398Z,16.51
2023-04-29T05:58:36.255Z,16.42
2023-04-29T06:01:04.411Z,16.39
2023-04-29T06:03:32.317Z,16.29
2023-04-29T06:06:00.626Z,16.03
2023-04-29T06:08:28.567Z,15.84
2023-04-29T06:10:56.191Z,15.68
2023-04-29T06:13:25.178Z,15.51
2023-04-29T06:15:52.892Z,15.73
2023-04-29T06:18:20.833Z,16.20
2023-04-29T06:20:48.505Z,16.30
2023-04-29T06:23:16.127Z,17.35
2023-04-29T06:25:43.804Z,17.65
2023-04-29T06:28:11.629Z,17.78
2023-04-29T06:30:40.560Z,18.46
2023-04-29T06:33:08.199Z,17.91
2023-04-29T06:35:40.260Z,18.65
2023-04-29T06:38:09.063Z,19.15
2023-04-29T06:40:36.923Z,20.55
2023-04-29T06:43:04.847Z,20.48
2023-04-29T06:45:32.433Z,21.17
2023-04-29T06:48:01.419Z,19.86
2023-04-29T06:50:29.599Z,19.20
2023-04-29T06:52:57.130Z,19.86
2023-04-29T06:55:24.902Z,20.76
2023-04-29T06:57:52.506Z,20.96
2023-04-29T07:00:21.195Z,19.71
2023-04-29T07:02:48.806Z,18.39
2023-04-29T07:05:18.492Z,16.90
2023-04-29T07:07:46.154Z,16.17
2023-04-29T07:10:13.809Z,15.73
2023-04-29T07:12:41.558Z,15.93
2023-04-29T07:15:09.849Z,15.58
2023-04-29T07:17:37.510Z,15.65
2023-04-29T07:20:06.713Z,15.63
2023-04-29T07:22:35.929Z,15.40
2023-04-29T07:25:04.397Z,15.09
2023-04-29T07:27:33.437Z,15.03
2023-04-29T07:30:01.165Z,15.03
2023-04-29T07:32:28.988Z,15.02
2023-04-29T07:34:58.459Z,14.81
2023-04-29T07:37:27.119Z,14.84
2023-04-29T07:39:56.281Z,14.69
2023-04-29T07:42:23.865Z,14.62
2023-04-29T07:44:51.669Z,14.53
2023-04-29T07:47:19.602Z,14.69
2023-04-29T07:49:47.338Z,14.73
2023-04-29T07:52:14.940Z,14.61
2023-04-29T07:54:42.492Z,14.37
2023-04-29T07:57:11.581Z,14.26
2023-04-29T07:59:39.395Z,14.24
2023-04-29T08:02:07.827Z,14.00
2023-04-29T08:04:35.647Z,14.14
2023-04-29T08:07:05.578Z,14.12
2023-04-29T08:09:33.169Z,14.40
2023-04-29T08:12:02.173Z,14.43
2023-04-29T08:14:31.250Z,14.50
2023-04-29T08:16:58.910Z,14.62
2023-04-29T08:19:26.623Z,14.87
2023-04-29T08:21:54.932Z,14.86
2023-04-29T08:24:22.861Z,14.55
2023-04-29T08:26:51.096Z,14.60
2023-04-29T08:29:18.831Z,14.54
2023-04-29T08:31:48.890Z,14.85
2023-04-29T08:34:16.705Z,14.74
2023-04-29T08:36:44.399Z,14.72
2023-04-29T08:39:12.074Z,14.75
2023-04-29T08:41:39.997Z,14.67
2023-04-29T08:44:07.832Z,14.68
2023-04-29T08:46:35.732Z,14.70
2023-04-29T08:49:05.544Z,14.84
2023-04-29T08:51:34.708Z,14.65
2023-04-29T08:54:02.826Z,14.86
2023-04-29T08:56:32.494Z,15.35
2023-04-29T08:59:01.880Z,15.64
2023-04-29T09:01:31.118Z,15.32
2023-04-29T09:04:17.071Z,15.26
2023-04-29T09:06:47.230Z,15.47
2023-04-29T09:09:15.648Z,15.51
2023-04-29T09:11:43.706Z,15.37
2023-04-29T09:14:11.441Z,15.39
2023-04-29T09:16:39.157Z,15.38
2023-04-29T09:19:07.110Z,15.50
2023-04-29T09:21:36.066Z,15.41
2023-04-29T09:24:04.837Z,15.64
2023-04-29T09:26:42.990Z,15.60
2023-04-29T09:29:13.922Z,15.60
2023-04-29T09:31:43.062Z,15.74
2023-04-29T09:34:11.772Z,15.77
2023-04-29T09:36:52.309Z,15.58
2023-04-29T09:39:22.633Z,15.47
2023-04-29T09:42:02.704Z,15.32
2023-04-29T09:44:34.493Z,15.41
2023-04-29T09:47:04.614Z,14.88
2023-04-29T09:49:37.393Z,15.20
2023-04-29T09:52:08.779Z,15.24
2023-04-29T09:54:38.909Z,15.26
2023-04-29T09:57:09.946Z,15.19
2023-04-29T09:59:38.986Z,15.25
2023-04-29T10:02:11.553Z,15.25
2023-04-29T10:04:42.632Z,15.05
2023-04-29T10:07:15.814Z,15.31
2023-04-29T10:09:46.721Z,15.18
2023-04-29T10:12:17.517Z,15.09
2023-04-29T10:15:07.200Z,14.77
2023-04-29T10:17:44.473Z,14.82
2023-04-29T10:20:15.392Z,14.59
2023-04-29T10:22:48.039Z,14.66
2023-04-29T10:25:17.119Z,15.11
2023-04-29T10:27:45.958Z,15.21
2023-04-29T10:30:16.594Z,15.64
2023-04-29T10:32:51.665Z,15.90
2023-04-29T10:35:23.586Z,16.05
2023-04-29T10:37:54.156Z,16.22
2023-04-29T10:40:28.629Z,16.16
2023-04-29T10:42:56.428Z,15.96
2023-04-29T10:45:27.184Z,16.12
2023-04-29T10:48:13.240Z,16.48
2023-04-29T10:51:01.135Z,16.44
2023-04-29T10:53:30.723Z,16.88
2023-04-29T10:56:04.311Z,17.08
2023-04-29T10:58:36.924Z,17.57
2023-04-29T11:01:06.253Z,17.37
2023-04-29T11:03:48.467Z,17.73
2023-04-29T11:06:16.634Z,18.27
2023-04-29T11:08:45.889Z,18.32
2023-04-29T11:11:15.375Z,18.48
2023-04-29T11:13:47.846Z,18.29
2023-04-29T11:16:15.721Z,17.82
2023-04-29T11:19:15.928Z,18.26
2023-04-29T11:21:43.553Z,18.28
2023-04-29T11:24:15.613Z,18.09
2023-04-29T11:26:46.599Z,18.46
2023-04-29T11:29:15.814Z,18.61
2023-04-29T11:31:44.052Z,18.72
2023-04-29T11:34:11.832Z,18.69
2023-04-29T11:36:39.879Z,18.53
2023-04-29T11:39:08.075Z,18.32
2023-04-29T11:41:37.732Z,18.50
2023-04-29T11:44:07.421Z,18.74
2023-04-29T11:46:35.425Z,18.82
2023-04-29T11:49:06.695Z,18.99
2023-04-29T11:51:34.714Z,18.99
2023-04-29T11:54:02.383Z,18.33
2023-04-29T11:56:30.314Z,18.04
2023-04-29T11:59:01.303Z,18.17
2023-04-29T12:01:31.128Z,17.83
2023-04-29T12:04:00.990Z,17.33
2023-04-29T12:06:30.043Z,16.96
2023-04-29T12:09:00.418Z,17.32
2023-04-29T12:11:28.215Z,17.52
2023-04-29T12:13:56.093Z,17.59
2023-04-29T12:16:25.664Z,17.49
2023-04-29T12:18:54.322Z,17.59
2023-04-29T12:21:23.077Z,16.88
2023-04-29T12:23:52.388Z,16.72
2023-04-29T12:26:20.843Z,16.48
2023-04-29T12:28:50.236Z,16.32
2023-04-29T12:31:18.160Z,16.19
2023-04-29T12:33:47.400Z,16.20
2023-04-29T12:36:19.123Z,15.95
2023-04-29T12:38:48.669Z,16.03
2023-04-29T12:41:17.403Z,15.95
2023-04-29T12:43:45.393Z,15.82
2023-04-29T12:46:13.775Z,15.62
2023-04-29T12:48:44.560Z,15.77
2023-04-29T12:51:13.760Z,15.76
2023-04-29T12:53:42.018Z,15.75
2023-04-29T12:56:13.140Z,15.97
2023-04-29T12:58:40.742Z,16.05
2023-04-29T13:01:08.417Z,15.67
2023-04-29T13:03:36.226Z,15.64
2023-04-29T13:06:04.124Z,15.80
2023-04-29T13:08:33.179Z,16.01
2023-04-29T13:11:01.111Z,16.01
2023-04-29T13:13:28.731Z,16.29
2023-04-29T13:15:56.718Z,15.91
2023-04-29T13:18:24.301Z,16.04
2023-04-29T13:20:53.284Z,16.20
2023-04-29T13:23:20.984Z,16.57
2023-04-29T13:25:51.376Z,16.33
2023-04-29T13:28:19.148Z,16.60
2023-04-29T13:30:46.789Z,16.19
2023-04-29T13:33:14.575Z,16.20
2023-04-29T13:35:42.306Z,16.31
2023-04-29T13:38:10.061Z,16.20
2023-04-29T13:40:41.815Z,16.02
2023-04-29T13:43:18.637Z,15.93
2023-04-29T13:45:57.245Z,15.37
2023-04-29T13:49:00.875Z,15.55
2023-04-29T14:01:55.152Z,15.80
2023-04-29T14:04:06.028Z,16.00
2023-04-29T14:06:34.092Z,16.00
2023-04-29T14:09:03.718Z,16.21
2023-04-29T14:11:36.436Z,16.28
2023-04-29T14:14:05.887Z,16.37
2023-04-29T14:16:33.648Z,16.38
2023-04-29T14:19:03.640Z,16.53
2023-04-29T14:21:33.081Z,16.51
2023-04-29T14:24:02.388Z,16.49
2023-04-29T14:26:30.145Z,16.47
2023-04-29T14:28:59.259Z,16.32
2023-04-29T14:31:29.500Z,15.99
2023-04-29T14:33:58.261Z,16.04
2023-04-29T14:36:28.072Z,15.93
2023-04-29T14:39:00.636Z,15.89
2023-04-29T14:41:28.399Z,16.04
2023-04-29T14:43:56.033Z,16.07
2023-04-29T14:46:25.016Z,15.95
2023-04-29T14:48:53.961Z,15.85
2023-04-29T14:51:21.831Z,15.86
2023-04-29T14:53:49.649Z,15.99
2023-04-29T14:56:17.691Z,15.91
2023-04-29T14:58:45.468Z,15.80
2023-04-29T15:01:13.300Z,15.96
2023-04-29T15:03:44.165Z,15.96
2023-04-29T15:06:14.389Z,15.97
2023-04-29T15:08:42.238Z,15.64
2023-04-29T15:11:09.902Z,15.48
2023-04-29T15:13:37.593Z,15.26
2023-04-29T15:16:07.350Z,15.14
2023-04-29T15:18:35.109Z,15.10
2023-04-29T15:21:04.314Z,15.21
2023-04-29T15:23:33.444Z,15.01
2023-04-29T15:26:01.215Z,15.13
2023-04-29T15:28:28.792Z,14.83
2023-04-29T15:30:56.650Z,14.80
2023-04-29T15:33:24.321Z,14.74
2023-04-29T15:35:52.147Z,14.72
2023-04-29T15:38:19.771Z,14.66
2023-04-29T15:40:48.693Z,14.72
2023-04-29T15:43:16.610Z,14.67
2023-04-29T15:45:44.385Z,14.49
2023-04-29T15:48:12.133Z,14.65
2023-04-29T15:50:39.953Z,14.44
2023-04-29T15:53:07.484Z,14.13
2023-04-29T15:55:36.019Z,14.25
2023-04-29T15:58:05.054Z,14.30
2023-04-29T16:00:32.849Z,14.33
2023-04-29T16:03:00.584Z,14.27
2023-04-29T16:05:29.072Z,14.17
2023-04-29T16:07:56.666Z,14.26
2023-04-29T16:10:24.368Z,14.28
2023-04-29T16:12:51.984Z,14.29
2023-04-29T16:15:21.214Z,14.25
2023-04-29T16:17:49.021Z,14.13
2023-04-29T16:20:17.501Z,14.14
2023-04-29T16:22:45.046Z,14.06
2023-04-29T16:25:12.834Z,14.12
2023-04-29T16:27:40.588Z,14.03
2023-04-29T16:30:12.234Z,14.08
2023-04-29T16:32:43.105Z,14.05
2023-04-29T16:35:12.660Z,14.08
2023-04-29T16:37:41.747Z,14.00
2023-04-29T16:40:11.055Z,14.13
2023-04-29T16:42:38.743Z,14.11
2023-04-29T16:45:07.181Z,14.01
2023-04-29T16:47:35.384Z,13.81
2023-04-29T16:50:08.697Z,14.00
2023-04-29T16:52:36.374Z,14.09
2023-04-29T16:55:04.367Z,14.09
2023-04-29T16:57:33.631Z,14.11
2023-04-29T17:00:01.446Z,14.10
2023-04-29T17:02:30.682Z,14.05
2023-04-29T17:04:58.932Z,14.22
2023-04-29T17:07:29.150Z,14.12
2023-04-29T17:09:56.987Z,14.17
2023-04-29T17:12:24.950Z,14.20
2023-04-29T17:14:52.568Z,14.23
2023-04-29T17:17:20.325Z,14.14
2023-04-29T17:19:52.289Z,14.13
2023-04-29T17:22:21.211Z,14.05
2023-04-29T17:24:50.783Z,14.01
2023-04-29T17:27:18.475Z,13.94
2023-04-29T17:29:46.300Z,13.80
2023-04-29T17:32:17.444Z,13.82
2023-04-29T17:34:45.194Z,13.78
2023-04-29T17:37:12.849Z,13.58
2023-04-29T17:39:40.609Z,13.61
2023-04-29T17:42:09.533Z,13.57
2023-04-29T17:44:38.199Z,13.54
2023-04-29T17:47:06.116Z,13.50
2023-04-29T17:49:33.928Z,13.53
2023-04-29T17:52:04.081Z,13.50
2023-04-29T17:54:31.983Z,13.53
2023-04-29T17:57:02.030Z,13.44
2023-04-29T17:59:31.057Z,13.39
2023-04-29T18:01:58.761Z,13.55
2023-04-29T18:04:26.434Z,13.55
2023-04-29T18:06:54.106Z,13.56
2023-04-29T18:09:22.194Z,13.42
2023-04-29T18:11:50.137Z,13.50
2023-04-29T18:14:17.957Z,13.42
2023-04-29T18:16:47.134Z,13.51
2023-04-29T18:19:14.849Z,13.44
2023-04-29T18:21:42.521Z,13.40
2023-04-29T18:24:10.199Z,13.36
2023-04-29T18:26:37.972Z,13.41
2023-04-29T18:29:06.184Z,13.47
2023-04-29T18:31:34.015Z,13.43
2023-04-29T18:34:03.267Z,13.38
2023-04-29T18:36:33.923Z,13.38
2023-04-29T18:39:02.921Z,13.41
2023-04-29T18:41:30.716Z,13.24
2023-04-29T18:43:58.441Z,13.30
2023-04-29T18:46:26.187Z,13.32
2023-04-29T18:48:53.815Z,13.28
2023-04-29T18:51:25.267Z,13.27
2023-04-29T18:53:53.011Z,13.41
2023-04-29T18:56:21.026Z,13.40
2023-04-29T18:58:49.492Z,13.38
2023-04-29T19:01:17.250Z,13.25
2023-04-29T19:03:44.939Z,13.37
2023-04-29T19:06:12.576Z,13.35
2023-04-29T19:08:41.596Z,13.31
2023-04-29T19:11:09.306Z,13.22
2023-04-29T19:13:36.901Z,13.29
2023-04-29T19:16:04.805Z,13.32
2023-04-29T19:18:32.600Z,13.39
2023-04-29T19:21:01.248Z,13.38
2023-04-29T19:23:28.902Z,13.23
2023-04-29T19:25:57.982Z,13.28
2023-04-29T19:28:25.988Z,13.17
2023-04-29T19:30:54.033Z,13.16
2023-04-29T19:33:21.808Z,13.12
2023-04-29T19:35:49.509Z,12.93
2023-04-29T19:38:24.257Z,12.94
2023-04-29T19:43:38.470Z,12.98
2023-04-29T19:46:06.693Z,12.92
2023-04-29T19:48:34.399Z,12.94
2023-04-29T19:51:02.043Z,12.87
2023-04-29T19:53:30.007Z,12.74
2023-04-29T19:55:57.783Z,12.84
2023-04-29T19:58:25.438Z,13.10
2023-04-29T20:00:54.919Z,13.14
2023-04-29T20:03:22.737Z,13.07
2023-04-29T20:05:50.473Z,13.23
2023-04-29T20:08:18.141Z,13.19
2023-04-29T20:10:48.055Z,13.21
2023-04-29T20:13:15.780Z,13.09
2023-04-29T20:15:43.400Z,13.03
2023-04-29T20:18:12.358Z,12.97
2023-04-29T20:20:40.041Z,12.94
2023-04-29T20:23:07.674Z,12.93
2023-04-29T20:25:35.449Z,13.07
2023-04-29T20:28:03.199Z,13.10
2023-04-29T20:30:30.877Z,13.11
2023-04-29T20:32:58.543Z,13.09
2023-04-29T20:35:27.534Z,13.01
2023-04-29T20:37:55.325Z,12.99
2023-04-29T20:40:23.272Z,12.95
2023-04-29T20:42:51.029Z,12.90
2023-04-29T20:45:21.295Z,12.93
2023-04-29T20:47:49.492Z,12.88
2023-04-29T20:50:17.204Z,12.91
2023-04-29T20:52:49.141Z,12.94
2023-04-29T20:55:17.088Z,12.97
2023-04-29T20:57:44.801Z,12.99
2023-04-29T21:00:14.270Z,12.95
2023-04-29T21:02:42.133Z,12.86
2023-04-29T21:05:10.899Z,12.74
2023-04-29T21:07:38.813Z,12.84
2023-04-29T21:10:08.430Z,12.83
2023-04-29T21:12:36.108Z,12.79
2023-04-29T21:15:04.335Z,12.70
2023-04-29T21:17:32.023Z,12.82
2023-04-29T21:19:59.695Z,12.79
2023-04-29T21:22:27.833Z,12.68
2023-04-29T21:24:55.624Z,12.68
2023-04-29T21:27:24.684Z,12.67
2023-04-29T21:29:52.476Z,12.76
2023-04-29T21:32:21.792Z,12.72
2023-04-29T21:34:49.859Z,12.62
2023-04-29T21:37:17.590Z,12.57
2023-04-29T21:39:45.205Z,12.63
2023-04-29T21:42:14.478Z,12.52
2023-04-29T21:44:44.721Z,12.57
2023-04-29T21:47:12.342Z,12.55
2023-04-29T21:49:40.241Z,12.56
2023-04-29T21:52:08.009Z,12.50
2023-04-29T21:54:35.781Z,12.59
2023-04-29T21:57:03.847Z,12.71
2023-04-29T21:59:34.328Z,12.52
2023-04-29T22:02:14.303Z,12.49
2023-04-29T22:04:42.697Z,12.44
2023-04-29T22:07:10.479Z,12.46
2023-04-29T22:09:38.410Z,12.49
2023-04-29T22:12:06.572Z,12.41
2023-04-29T22:14:36.336Z,12.39
2023-04-29T22:17:06.409Z,12.41
2023-04-29T22:19:34.428Z,12.35
2023-04-29T22:22:02.134Z,12.32
2023-04-29T22:24:31.241Z,12.37
2023-04-29T22:27:00.144Z,12.42
2023-04-29T22:29:27.775Z,12.43
2023-04-29T22:31:56.215Z,12.48
2023-04-29T22:34:25.461Z,12.37
2023-04-29T22:36:53.162Z,12.64
2023-04-29T22:39:20.937Z,12.64
2023-04-29T22:41:48.643Z,12.71
2023-04-29T22:44:16.294Z,12.68
2023-04-29T22:46:43.911Z,12.68
2023-04-29T22:49:11.731Z,12.64
2023-04-29T22:51:41.337Z,12.63
2023-04-29T22:54:09.199Z,12.54
2023-04-29T22:56:36.880Z,12.64
2023-04-29T22:59:04.829Z,12.69
2023-04-29T23:01:32.604Z,12.70
2023-04-29T23:04:00.364Z,12.66
2023-04-29T23:06:27.925Z,12.49
2023-04-29T23:08:57.009Z,12.48
2023-04-29T23:11:24.999Z,12.36
2023-04-29T23:13:52.851Z,12.33
2023-04-29T23:16:22.947Z,12.37
2023-04-29T23:18:50.939Z,12.44
2023-04-29T23:21:18.543Z,12.33
2023-04-29T23:23:48.569Z,12.50
2023-04-29T23:26:17.621Z,12.53
2023-04-29T23:28:45.732Z,12.48
2023-04-29T23:31:13.402Z,12.56
2023-04-29T23:33:41.255Z,12.58
2023-04-29T23:36:09.053Z,12.56
2023-04-29T23:38:36.718Z,12.42
2023-04-29T23:41:04.455Z,12.45
2023-04-29T23:43:36.478Z,12.52
2023-04-29T23:46:04.477Z,12.46
2023-04-29T23:48:32.407Z,12.44
2023-04-29T23:51:00.418Z,12.28
2023-04-29T23:53:27.987Z,12.12
2023-04-29T23:55:55.594Z,12.31
2023-04-29T23:58:23.345Z,12.16
